Time,TemperatureF,DewpointF,PressureIn,WindDirection,WindDirectionDegrees,WindSpeedMPH,WindSpeedGustMPH,Humidity,HourlyPrecipIn,Conditions,Clouds,dailyrainin,SoftwareType,DateUTC
2013-03-13 00:10:00,37.9,37.4,29.79,NE,45,1.7,-999.0,98,-99.99,,,0.00,Acu-Link.com,2013-03-13 04:10:00,
2013-03-13 00:25:00,38.1,37.6,29.79,SSE,157,0.0,-999.0,98,-99.99,,,0.00,Acu-Link.com,2013-03-13 04:25:00,
2013-03-13 00:40:00,38.3,37.8,29.79,ENE,67,0.0,-999.0,98,-99.99,,,0.00,Acu-Link.com,2013-03-13 04:40:00,
2013-03-13 00:55:00,37.2,36.7,29.78,ESE,112,2.7,-999.0,98,-99.99,,,0.00,Acu-Link.com,2013-03-13 04:55:00,
2013-03-13 01:11:00,36.7,36.2,29.79,ESE,112,1.1,-999.0,98,-99.99,,,0.00,Acu-Link.com,2013-03-13 05:11:00,
2013-03-13 01:26:00,36.5,36.0,29.79,WSW,247,0.0,-999.0,98,-99.99,,,0.00,Acu-Link.com,2013-03-13 05:26:00,
2013-03-13 01:41:00,37.4,36.9,29.78,ESE,112,2.7,-999.0,98,-99.99,,,0.00,Acu-Link.com,2013-03-13 05:41:00,
2013-03-13 02:11:00,39.4,38.1,29.80,NNE,22,3.7,-999.0,95,-99.99,,,0.00,Acu-Link.com,2013-03-13 06:11:00,
2013-03-13 02:27:00,39.2,37.6,29.79,East,90,1.1,-999.0,94,-99.99,,,0.00,Acu-Link.com,2013-03-13 06:27:00,
2013-03-13 02:42:00,38.8,37.2,29.80,SE,135,3.7,-999.0,94,-99.99,,,0.00,Acu-Link.com,2013-03-13 06:42:00,
2013-03-13 02:57:00,38.7,37.7,29.80,NNE,22,2.2,-999.0,96,-99.99,,,0.00,Acu-Link.com,2013-03-13 06:57:00,
2013-03-13 03:12:00,38.7,38.2,29.80,SE,135,10.9,-999.0,98,-99.99,,,0.00,Acu-Link.com,2013-03-13 07:12:00,
2013-03-13 03:27:00,38.1,37.6,29.79,SSE,157,1.1,-999.0,98,-99.99,,,0.00,Acu-Link.com,2013-03-13 07:27:00,
2013-03-13 03:43:00,37.6,37.1,29.79,ESE,112,1.7,-999.0,98,-99.99,,,0.00,Acu-Link.com,2013-03-13 07:43:00,
2013-03-13 03:58:00,37.6,36.0,29.79,NW,315,2.2,-999.0,94,-99.99,,,0.00,Acu-Link.com,2013-03-13 07:58:00,
2013-03-13 04:13:00,36.9,35.6,29.79,WSW,247,2.7,-999.0,95,-99.99,,,0.00,Acu-Link.com,2013-03-13 08:13:00,
2013-03-13 04:28:00,36.5,35.2,29.79,NE,45,1.7,-999.0,95,-99.99,,,0.00,Acu-Link.com,2013-03-13 08:28:00,
2013-03-13 04:43:00,35.2,34.7,29.79,South,180,2.7,-999.0,98,-99.99,,,0.00,Acu-Link.com,2013-03-13 08:43:00,
2013-03-13 04:58:00,33.8,33.3,29.79,WSW,247,0.0,-999.0,98,-99.99,,,0.00,Acu-Link.com,2013-03-13 08:58:00,
2013-03-13 05:14:00,33.1,32.6,29.79,ESE,112,2.2,-999.0,98,-99.99,,,0.00,Acu-Link.com,2013-03-13 09:14:00,
2013-03-13 05:29:00,31.8,31.3,29.79,West,270,0.0,-999.0,98,-99.99,,,0.00,Acu-Link.com,2013-03-13 09:29:00,
2013-03-13 05:44:00,30.9,30.4,29.79,East,90,1.1,-999.0,98,-99.99,,,0.00,Acu-Link.com,2013-03-13 09:44:00,
2013-03-13 05:59:00,30.2,29.7,29.80,NE,45,0.0,-999.0,98,-99.99,,,0.00,Acu-Link.com,2013-03-13 09:59:00,
2013-03-13 06:14:00,29.5,29.0,29.80,SSE,157,0.0,-999.0,98,-99.99,,,0.00,Acu-Link.com,2013-03-13 10:14:00,
2013-03-13 06:30:00,28.6,28.1,29.80,SSW,202,0.0,-999.0,98,-99.99,,,0.00,Acu-Link.com,2013-03-13 10:30:00,
2013-03-13 06:45:00,27.9,27.4,29.80,WNW,292,0.0,-999.0,98,-99.99,,,0.00,Acu-Link.com,2013-03-13 10:45:00,
2013-03-13 07:00:00,27.3,26.8,29.80,SSW,202,0.0,-999.0,98,-99.99,,,0.00,Acu-Link.com,2013-03-13 11:00:00,
2013-03-13 07:15:00,27.0,26.5,29.80,ENE,67,0.0,-999.0,98,-99.99,,,0.00,Acu-Link.com,2013-03-13 11:15:00,
2013-03-13 07:30:00,26.6,26.1,29.80,West,270,0.0,-999.0,98,-99.99,,,0.00,Acu-Link.com,2013-03-13 11:30:00,
2013-03-13 08:16:00,26.4,25.9,29.82,South,180,0.0,-999.0,98,-99.99,,,0.00,Acu-Link.com,2013-03-13 12:16:00,
2013-03-13 08:31:00,26.8,26.3,29.81,North,0,0.0,-999.0,98,-99.99,,,0.00,Acu-Link.com,2013-03-13 12:31:00,
2013-03-13 08:47:00,27.5,27.0,29.82,South,180,0.0,-999.0,98,-99.99,,,0.00,Acu-Link.com,2013-03-13 12:47:00,
2013-03-13 09:02:00,28.2,27.7,29.81,North,0,0.0,-999.0,98,-99.99,,,0.00,Acu-Link.com,2013-03-13 13:02:00,
2013-03-13 09:17:00,31.5,31.0,29.81,ESE,112,1.7,-999.0,98,-99.99,,,0.00,Acu-Link.com,2013-03-13 13:17:00,
2013-03-13 09:32:00,38.7,38.2,29.81,SSW,202,1.1,-999.0,98,-99.99,,,0.00,Acu-Link.com,2013-03-13 13:32:00,
2013-03-13 09:47:00,42.3,35.9,29.81,NNW,337,1.1,-999.0,78,-99.99,,,0.00,Acu-Link.com,2013-03-13 13:47:00,
2013-03-13 10:02:00,43.5,37.4,29.82,ESE,112,2.7,-999.0,79,-99.99,,,0.00,Acu-Link.com,2013-03-13 14:02:00,
2013-03-13 10:17:00,43.2,36.8,29.82,North,0,1.7,-999.0,78,-99.99,,,0.00,Acu-Link.com,2013-03-13 14:17:00,
2013-03-13 10:33:00,44.1,37.7,29.82,East,90,1.7,-999.0,78,-99.99,,,0.00,Acu-Link.com,2013-03-13 14:33:00,
2013-03-13 10:48:00,45.5,40.0,29.82,North,0,3.2,-999.0,81,-99.99,,,0.00,Acu-Link.com,2013-03-13 14:48:00,
2013-03-13 11:03:00,47.1,38.9,29.81,NNE,22,3.7,-999.0,73,-99.99,,,0.00,Acu-Link.com,2013-03-13 15:03:00,
2013-03-13 11:18:00,47.7,37.3,29.81,SSE,157,5.3,-999.0,67,-99.99,,,0.00,Acu-Link.com,2013-03-13 15:18:00,
2013-03-13 11:34:00,49.5,39.4,29.81,ENE,67,4.7,-999.0,68,-99.99,,,0.00,Acu-Link.com,2013-03-13 15:34:00,
2013-03-13 11:49:00,48.4,38.3,29.81,NE,45,3.2,-999.0,68,-99.99,,,0.00,Acu-Link.com,2013-03-13 15:49:00,
2013-03-13 12:04:00,49.5,37.0,29.81,West,270,2.7,-999.0,62,-99.99,,,0.00,Acu-Link.com,2013-03-13 16:04:00,
2013-03-13 12:19:00,51.1,37.7,29.81,ESE,112,5.3,-999.0,60,-99.99,,,0.00,Acu-Link.com,2013-03-13 16:19:00,
2013-03-13 12:34:00,50.5,36.3,29.81,East,90,3.7,-999.0,58,-99.99,,,0.00,Acu-Link.com,2013-03-13 16:34:00,
2013-03-13 12:50:00,49.1,34.5,29.80,SE,135,3.2,-999.0,57,-99.99,,,0.00,Acu-Link.com,2013-03-13 16:50:00,
2013-03-13 13:05:00,50.5,34.9,29.80,South,180,2.7,-999.0,55,-99.99,,,0.00,Acu-Link.com,2013-03-13 17:05:00,
2013-03-13 13:20:00,51.6,35.5,29.80,East,90,4.2,-999.0,54,-99.99,,,0.00,Acu-Link.com,2013-03-13 17:20:00,
2013-03-13 13:35:00,51.1,35.5,29.79,SSW,202,1.7,-999.0,55,-99.99,,,0.00,Acu-Link.com,2013-03-13 17:35:00,
2013-03-13 13:50:00,51.8,34.7,29.79,SSE,157,8.9,-999.0,52,-99.99,,,0.00,Acu-Link.com,2013-03-13 17:50:00,
2013-03-13 14:06:00,51.6,34.1,29.79,SE,135,7.8,-999.0,51,-99.99,,,0.00,Acu-Link.com,2013-03-13 18:06:00,
2013-03-13 14:36:00,50.7,35.6,29.78,SSE,157,3.2,-999.0,56,-99.99,,,0.00,Acu-Link.com,2013-03-13 18:36:00,
2013-03-13 15:06:00,49.1,34.1,29.78,NNE,22,6.3,-999.0,56,-99.99,,,0.00,Acu-Link.com,2013-03-13 19:06:00,
2013-03-13 15:22:00,48.2,32.3,29.77,WSW,247,2.7,-999.0,54,-99.99,,,0.00,Acu-Link.com,2013-03-13 19:22:00,
2013-03-13 15:37:00,48.2,31.9,29.77,ENE,67,4.7,-999.0,53,-99.99,,,0.00,Acu-Link.com,2013-03-13 19:37:00,
2013-03-13 15:52:00,47.5,30.8,29.77,SE,135,3.2,-999.0,52,-99.99,,,0.00,Acu-Link.com,2013-03-13 19:52:00,
2013-03-13 16:08:00,47.8,31.0,29.78,ESE,112,2.2,-999.0,52,-99.99,,,0.00,Acu-Link.com,2013-03-13 20:08:00,
2013-03-13 16:23:00,46.6,30.4,29.79,SSW,202,4.2,-999.0,53,-99.99,,,0.00,Acu-Link.com,2013-03-13 20:23:00,
2013-03-13 16:38:00,46.0,29.8,29.79,North,0,4.2,-999.0,53,-99.99,,,0.00,Acu-Link.com,2013-03-13 20:38:00,
2013-03-13 16:53:00,45.0,29.4,29.80,ENE,67,4.7,-999.0,54,-99.99,,,0.00,Acu-Link.com,2013-03-13 20:53:00,
2013-03-13 17:08:00,45.0,29.8,29.80,ESE,112,4.7,-999.0,55,-99.99,,,0.00,Acu-Link.com,2013-03-13 21:08:00,
2013-03-13 17:24:00,43.2,27.7,29.80,SE,135,3.2,-999.0,54,-99.99,,,0.00,Acu-Link.com,2013-03-13 21:24:00,
2013-03-13 17:39:00,42.3,26.9,29.81,SE,135,4.7,-999.0,54,-99.99,,,0.00,Acu-Link.com,2013-03-13 21:39:00,
2013-03-13 17:54:00,41.7,27.6,29.82,ENE,67,3.2,-999.0,57,-99.99,,,0.00,Acu-Link.com,2013-03-13 21:54:00,
2013-03-13 18:09:00,40.3,27.5,29.82,West,270,2.7,-999.0,60,-99.99,,,0.00,Acu-Link.com,2013-03-13 22:09:00,
2013-03-13 18:25:00,39.0,26.7,29.82,NE,45,4.2,-999.0,61,-99.99,,,0.00,Acu-Link.com,2013-03-13 22:25:00,
2013-03-13 18:40:00,37.6,26.9,29.83,NE,45,2.2,-999.0,65,-99.99,,,0.00,Acu-Link.com,2013-03-13 22:40:00,
2013-03-13 18:55:00,36.1,26.9,29.84,NNE,22,7.3,-999.0,69,-99.99,,,0.00,Acu-Link.com,2013-03-13 22:55:00,
2013-03-13 19:10:00,35.6,27.8,29.85,NNE,22,4.7,-999.0,73,-99.99,,,0.00,Acu-Link.com,2013-03-13 23:10:00,
2013-03-13 19:25:00,34.9,27.8,29.85,NE,45,1.1,-999.0,75,-99.99,,,0.00,Acu-Link.com,2013-03-13 23:25:00,
2013-03-13 19:41:00,34.3,27.9,29.85,South,180,4.2,-999.0,77,-99.99,,,0.00,Acu-Link.com,2013-03-13 23:41:00,
2013-03-13 20:11:00,33.6,26.9,29.85,SW,225,2.2,-999.0,76,-99.99,,,0.00,Acu-Link.com,2013-03-14 00:11:00,
2013-03-13 20:57:00,32.7,26.0,29.87,NNE,22,4.2,-999.0,76,-99.99,,,0.00,Acu-Link.com,2013-03-14 00:57:00,
2013-03-13 21:12:00,32.4,25.4,29.86,SE,135,4.2,-999.0,75,-99.99,,,0.00,Acu-Link.com,2013-03-14 01:12:00,
2013-03-13 21:27:00,32.0,25.3,29.86,SSE,157,3.2,-999.0,76,-99.99,,,0.00,Acu-Link.com,2013-03-14 01:27:00,
2013-03-13 21:42:00,31.3,24.6,29.87,NE,45,4.7,-999.0,76,-99.99,,,0.00,Acu-Link.com,2013-03-14 01:42:00,
2013-03-13 21:57:00,30.9,24.6,29.87,South,180,4.2,-999.0,77,-99.99,,,0.00,Acu-Link.com,2013-03-14 01:57:00,
2013-03-13 22:13:00,30.4,24.7,29.87,East,90,4.2,-999.0,79,-99.99,,,0.00,Acu-Link.com,2013-03-14 02:13:00,
2013-03-13 22:28:00,30.0,24.6,29.86,ESE,112,3.2,-999.0,80,-99.99,,,0.00,Acu-Link.com,2013-03-14 02:28:00,
2013-03-13 22:43:00,29.7,24.6,29.86,SSE,157,2.2,-999.0,81,-99.99,,,0.00,Acu-Link.com,2013-03-14 02:43:00,
2013-03-13 22:58:00,29.3,23.9,29.87,SE,135,3.7,-999.0,80,-99.99,,,0.00,Acu-Link.com,2013-03-14 02:58:00,
2013-03-13 23:13:00,29.1,23.4,29.87,South,180,6.3,-999.0,79,-99.99,,,0.00,Acu-Link.com,2013-03-14 03:13:00,
2013-03-13 23:29:00,28.8,23.1,29.87,NW,315,6.8,-999.0,79,-99.99,,,0.00,Acu-Link.com,2013-03-14 03:29:00,
2013-03-13 23:44:00,28.6,22.6,29.88,NE,45,4.2,-999.0,78,-99.99,,,0.00,Acu-Link.com,2013-03-14 03:44:00,
2013-03-13 23:59:00,28.4,22.4,29.88,ESE,112,4.2,-999.0,78,-99.99,,,0.00,Acu-Link.com,2013-03-14 03:59:00,